createdAt,value
2023-05-19T00:00:51.934Z,12.87
2023-05-19T00:03:39.926Z,12.83
2023-05-19T00:06:27.097Z,12.76
2023-05-19T00:09:12.090Z,12.74
2023-05-19T00:11:57.096Z,12.68
2023-05-19T00:14:42.231Z,12.65
2023-05-19T00:17:26.723Z,12.60
2023-05-19T00:20:12.075Z,12.53
2023-05-19T00:22:57.170Z,12.46
2023-05-19T00:25:42.235Z,12.42
2023-05-19T00:28:27.403Z,12.39
2023-05-19T00:31:12.216Z,12.28
2023-05-19T00:33:57.248Z,12.21
2023-05-19T00:36:43.109Z,12.10
2023-05-19T00:39:28.115Z,12.07
2023-05-19T00:42:14.032Z,12.03
2023-05-19T00:44:59.477Z,12.06
2023-05-19T00:47:44.409Z,12.04
2023-05-19T00:50:30.150Z,12.08
2023-05-19T00:53:17.732Z,12.14
2023-05-19T00:56:02.884Z,12.22
2023-05-19T00:58:50.356Z,12.16
2023-05-19T01:01:36.064Z,12.05
2023-05-19T01:04:21.346Z,12.04
2023-05-19T01:07:06.666Z,11.98
2023-05-19T01:09:51.525Z,11.95
2023-05-19T01:12:36.519Z,11.95
2023-05-19T01:15:23.088Z,11.94
2023-05-19T01:18:13.898Z,12.02
2023-05-19T01:21:15.495Z,12.02
2023-05-19T01:24:42.094Z,12.07
2023-05-19T01:28:15.617Z,12.03
2023-05-19T01:31:03.565Z,12.09
2023-05-19T01:33:51.221Z,12.08
2023-05-19T01:36:37.276Z,12.12
2023-05-19T01:39:23.209Z,12.18
2023-05-19T01:42:08.700Z,12.22
2023-05-19T01:44:54.891Z,12.17
2023-05-19T01:47:43.110Z,12.18
2023-05-19T01:50:29.238Z,12.16
2023-05-19T01:53:14.432Z,12.13
2023-05-19T01:56:00.079Z,12.11
2023-05-19T01:58:56.177Z,12.08
2023-05-19T02:01:53.804Z,12.07
2023-05-19T02:04:48.377Z,12.04
2023-05-19T02:07:51.606Z,12.05
2023-05-19T02:10:39.872Z,12.06
2023-05-19T02:13:30.754Z,12.07
2023-05-19T02:16:16.995Z,12.09
2023-05-19T02:19:02.347Z,12.07
2023-05-19T02:21:47.289Z,12.13
2023-05-19T02:24:32.272Z,12.17
2023-05-19T02:27:18.019Z,12.21
2023-05-19T02:30:04.113Z,12.23
2023-05-19T02:32:49.161Z,12.31
2023-05-19T02:35:33.949Z,12.34
2023-05-19T02:38:18.810Z,12.40
2023-05-19T02:41:03.851Z,12.43
2023-05-19T02:43:49.042Z,12.47
2023-05-19T02:46:34.152Z,12.52
2023-05-19T02:49:18.863Z,12.56
2023-05-19T02:52:04.996Z,12.59
2023-05-19T02:54:49.843Z,12.61
2023-05-19T02:57:34.737Z,12.65
2023-05-19T03:00:20.367Z,12.67
2023-05-19T03:03:05.092Z,12.70
2023-05-19T03:05:50.141Z,12.74
2023-05-19T03:08:36.129Z,12.74
2023-05-19T03:11:22.923Z,12.78
2023-05-19T03:14:11.364Z,12.84
2023-05-19T03:16:55.983Z,12.89
2023-05-19T03:19:41.009Z,12.93
2023-05-19T03:22:25.963Z,12.99
2023-05-19T03:25:11.269Z,13.05
2023-05-19T03:27:56.428Z,13.08
2023-05-19T03:30:40.865Z,13.13
2023-05-19T03:33:30.022Z,13.15
2023-05-19T03:36:14.733Z,13.23
2023-05-19T03:38:59.865Z,13.27
2023-05-19T03:41:45.139Z,13.31
2023-05-19T03:44:29.963Z,13.36
2023-05-19T03:47:18.116Z,13.42
2023-05-19T03:50:37.513Z,13.50
2023-05-19T03:53:32.792Z,13.55
2023-05-19T03:56:17.953Z,13.63
2023-05-19T03:59:05.570Z,13.73
2023-05-19T04:01:51.040Z,13.83
2023-05-19T04:04:37.409Z,13.88
2023-05-19T04:07:22.970Z,13.96
2023-05-19T04:10:08.447Z,14.06
2023-05-19T04:12:53.484Z,14.11
2023-05-19T04:15:38.701Z,14.18
2023-05-19T04:18:23.885Z,14.22
2023-05-19T04:21:08.632Z,14.28
2023-05-19T04:23:53.264Z,14.41
2023-05-19T04:26:41.581Z,14.48
2023-05-19T04:29:29.162Z,14.50
2023-05-19T04:32:16.849Z,14.57
2023-05-19T04:35:02.661Z,14.66
2023-05-19T04:37:48.004Z,14.79
2023-05-19T04:40:36.449Z,14.91
2023-05-19T04:43:21.619Z,14.97
2023-05-19T04:46:13.373Z,15.09
2023-05-19T04:49:00.645Z,15.17
2023-05-19T04:51:49.526Z,15.36
2023-05-19T04:54:38.082Z,15.55
2023-05-19T04:57:24.079Z,15.73
2023-05-19T05:00:12.653Z,15.95
2023-05-19T05:03:08.900Z,16.26
2023-05-19T05:05:53.959Z,16.36
2023-05-19T05:08:40.658Z,16.55
2023-05-19T05:11:26.447Z,16.66
2023-05-19T05:14:12.621Z,16.98
2023-05-19T05:16:57.775Z,17.19
2023-05-19T05:19:43.193Z,17.48
2023-05-19T05:22:28.243Z,17.76
2023-05-19T05:25:14.298Z,17.75
2023-05-19T05:28:04.345Z,17.88
2023-05-19T05:30:51.482Z,18.06
2023-05-19T05:33:38.202Z,18.10
2023-05-19T05:36:23.335Z,18.28
2023-05-19T05:39:08.221Z,18.52
2023-05-19T05:41:54.314Z,18.68
2023-05-19T05:44:39.272Z,18.78
2023-05-19T05:47:24.923Z,19.05
2023-05-19T05:50:11.378Z,19.25
2023-05-19T05:53:00.851Z,19.43
2023-05-19T05:55:50.001Z,19.66
2023-05-19T05:58:37.421Z,19.56
2023-05-19T06:01:23.646Z,19.70
2023-05-19T06:04:09.909Z,19.77
2023-05-19T06:07:00.371Z,19.99
2023-05-19T06:09:46.504Z,20.03
2023-05-19T06:12:33.322Z,20.11
2023-05-19T06:15:18.196Z,20.26
2023-05-19T06:18:09.393Z,20.56
2023-05-19T06:20:54.255Z,20.88
2023-05-19T06:23:40.415Z,21.19
2023-05-19T06:26:27.586Z,21.65
2023-05-19T06:29:12.790Z,21.94
2023-05-19T06:31:58.608Z,22.23
2023-05-19T06:34:43.825Z,22.35
2023-05-19T06:37:28.920Z,22.39
2023-05-19T06:40:16.468Z,22.59
2023-05-19T06:43:02.950Z,22.94
2023-05-19T06:46:14.326Z,23.40
2023-05-19T06:49:01.154Z,23.63
2023-05-19T06:51:49.648Z,23.38
2023-05-19T06:54:34.683Z,23.49
2023-05-19T06:57:21.074Z,23.75
2023-05-19T07:00:09.773Z,24.09
2023-05-19T07:02:54.538Z,23.88
2023-05-19T07:05:41.562Z,24.29
2023-05-19T07:08:27.226Z,24.34
2023-05-19T07:11:12.280Z,24.68
2023-05-19T07:13:58.527Z,24.57
2023-05-19T07:16:46.466Z,24.58
2023-05-19T07:19:31.679Z,24.77
2023-05-19T07:22:16.632Z,25.02
2023-05-19T07:25:04.471Z,25.27
2023-05-19T07:27:50.750Z,25.79
2023-05-19T07:30:35.872Z,25.95
2023-05-19T07:33:23.847Z,26.36
2023-05-19T07:36:08.770Z,26.60
2023-05-19T07:38:53.939Z,26.33
2023-05-19T07:41:42.804Z,26.27
2023-05-19T07:44:30.571Z,26.12
2023-05-19T07:47:15.466Z,26.26
2023-05-19T07:50:00.357Z,26.51
2023-05-19T07:52:45.049Z,26.75
2023-05-19T07:55:30.215Z,26.91
2023-05-19T07:58:16.170Z,26.70
2023-05-19T08:01:00.996Z,26.62
2023-05-19T08:03:45.806Z,26.76
2023-05-19T08:06:31.259Z,26.89
2023-05-19T08:09:16.345Z,27.02
2023-05-19T08:12:01.824Z,26.80
2023-05-19T08:14:46.738Z,26.40
2023-05-19T08:17:31.949Z,26.10
2023-05-19T08:20:16.729Z,25.49
2023-05-19T08:23:01.822Z,25.22
2023-05-19T08:25:47.111Z,24.91
2023-05-19T08:28:31.918Z,24.86
2023-05-19T08:31:17.749Z,24.65
2023-05-19T08:34:02.888Z,24.60
2023-05-19T08:36:48.285Z,24.96
2023-05-19T08:39:34.190Z,25.71
2023-05-19T08:42:19.102Z,26.13
2023-05-19T08:45:04.089Z,26.89
2023-05-19T08:47:50.723Z,27.17
2023-05-19T08:50:41.607Z,27.61
2023-05-19T08:53:36.384Z,27.73
2023-05-19T08:56:23.525Z,27.62
2023-05-19T08:59:08.817Z,27.47
2023-05-19T09:01:54.761Z,27.55
2023-05-19T09:04:41.586Z,27.36
2023-05-19T09:07:27.148Z,27.50
2023-05-19T09:10:15.608Z,27.79
2023-05-19T09:13:00.866Z,27.83
2023-05-19T09:15:46.426Z,27.46
2023-05-19T09:18:31.962Z,27.69
2023-05-19T09:21:17.126Z,28.37
2023-05-19T09:24:06.223Z,28.37
2023-05-19T09:26:54.212Z,28.36
2023-05-19T09:29:38.883Z,28.46
2023-05-19T09:32:26.254Z,28.43
2023-05-19T09:35:13.258Z,28.01
2023-05-19T09:37:58.266Z,28.14
2023-05-19T09:40:43.569Z,28.92
2023-05-19T09:43:30.261Z,30.05
2023-05-19T09:46:15.177Z,31.07
2023-05-19T09:48:59.747Z,31.25
2023-05-19T09:51:45.371Z,31.28
2023-05-19T09:54:31.651Z,30.96
2023-05-19T09:57:17.249Z,30.98
2023-05-19T10:00:14.611Z,30.93
2023-05-19T10:03:00.569Z,30.88
2023-05-19T10:05:47.084Z,31.26
2023-05-19T10:08:33.633Z,31.20
2023-05-19T10:11:19.033Z,30.61
2023-05-19T10:14:04.640Z,29.99
2023-05-19T10:16:54.957Z,29.13
2023-05-19T10:19:43.236Z,28.28
2023-05-19T10:22:28.113Z,28.06
2023-05-19T10:25:14.788Z,27.20
2023-05-19T10:28:14.182Z,26.72
2023-05-19T10:31:02.160Z,26.47
2023-05-19T10:34:18.445Z,26.46
2023-05-19T10:37:17.296Z,26.74
2023-05-19T10:40:19.654Z,26.60
2023-05-19T10:43:16.225Z,26.88
2023-05-19T10:46:01.034Z,27.08
2023-05-19T10:48:46.336Z,27.34
2023-05-19T10:51:31.748Z,27.34
2023-05-19T10:54:17.799Z,27.22
2023-05-19T10:57:02.258Z,27.10
2023-05-19T10:59:48.953Z,27.26
2023-05-19T11:02:41.276Z,27.15
2023-05-19T11:05:29.452Z,26.94
2023-05-19T11:08:14.239Z,26.41
2023-05-19T11:11:16.179Z,26.28
2023-05-19T11:14:03.696Z,26.13
2023-05-19T11:16:51.450Z,26.43
2023-05-19T11:19:36.321Z,26.37
2023-05-19T11:22:28.151Z,26.47
2023-05-19T11:25:12.989Z,26.61
2023-05-19T11:27:57.980Z,27.27
2023-05-19T11:30:44.874Z,27.99
2023-05-19T11:33:32.141Z,28.49
2023-05-19T11:36:18.978Z,28.97
2023-05-19T11:39:05.364Z,29.14
2023-05-19T11:41:51.006Z,29.76
2023-05-19T11:44:35.842Z,30.54
2023-05-19T11:47:21.259Z,30.42
2023-05-19T11:50:07.041Z,30.00
2023-05-19T11:52:53.055Z,29.69
2023-05-19T11:55:42.950Z,29.19
2023-05-19T11:58:28.038Z,28.93
2023-05-19T12:01:17.103Z,28.78
2023-05-19T12:04:06.948Z,28.69
2023-05-19T12:06:51.965Z,28.48
2023-05-19T12:09:37.208Z,28.22
2023-05-19T12:12:22.794Z,28.07
2023-05-19T12:15:08.419Z,27.96
2023-05-19T12:18:01.497Z,28.13
2023-05-19T12:20:46.733Z,27.94
2023-05-19T12:23:32.216Z,27.67
2023-05-19T12:26:22.144Z,27.58
2023-05-19T12:29:07.132Z,27.48
2023-05-19T12:31:53.234Z,27.39
2023-05-19T12:34:47.470Z,27.68
2023-05-19T12:37:36.806Z,28.03
2023-05-19T12:40:21.993Z,28.28
2023-05-19T12:43:08.887Z,28.66
2023-05-19T12:45:53.864Z,28.66
2023-05-19T12:48:43.619Z,28.69
2023-05-19T12:51:28.257Z,28.55
2023-05-19T12:54:13.302Z,28.68
2023-05-19T12:56:58.444Z,29.31
2023-05-19T12:59:43.108Z,30.02
2023-05-19T13:02:28.431Z,30.67
2023-05-19T13:05:13.180Z,30.24
2023-05-19T13:08:01.294Z,30.08
2023-05-19T13:10:47.018Z,30.04
2023-05-19T13:13:32.350Z,29.96
2023-05-19T13:16:17.026Z,29.24
2023-05-19T13:19:03.242Z,28.34
2023-05-19T13:21:50.457Z,28.12
2023-05-19T13:24:35.666Z,27.93
2023-05-19T13:27:20.598Z,28.03
2023-05-19T13:30:06.630Z,28.20
2023-05-19T13:32:51.908Z,28.11
2023-05-19T13:35:36.868Z,28.14
2023-05-19T13:38:21.783Z,28.11
2023-05-19T13:41:07.820Z,27.86
2023-05-19T13:43:57.811Z,27.44
2023-05-19T13:46:45.277Z,27.45
2023-05-19T13:49:31.452Z,27.85
2023-05-19T13:52:16.959Z,28.32
2023-05-19T13:55:03.027Z,28.87
2023-05-19T13:57:48.561Z,28.91
2023-05-19T14:00:35.018Z,28.44
2023-05-19T14:03:30.211Z,28.24
2023-05-19T14:06:15.342Z,28.19
2023-05-19T14:09:00.187Z,28.46
2023-05-19T14:11:45.393Z,28.77
2023-05-19T14:14:30.288Z,29.96
2023-05-19T14:17:14.874Z,31.24
2023-05-19T14:20:00.222Z,31.76
2023-05-19T14:22:45.318Z,32.06
2023-05-19T14:25:30.277Z,31.20
2023-05-19T14:28:14.714Z,30.21
2023-05-19T14:31:00.085Z,29.38
2023-05-19T14:33:45.164Z,28.77
2023-05-19T14:36:30.514Z,28.23
2023-05-19T14:39:15.439Z,27.58
2023-05-19T14:42:00.346Z,27.04
2023-05-19T14:44:45.175Z,26.69
2023-05-19T14:47:30.280Z,26.36
2023-05-19T14:50:15.023Z,26.12
2023-05-19T14:53:00.358Z,25.99
2023-05-19T14:55:48.439Z,25.88
2023-05-19T14:58:33.245Z,25.98
2023-05-19T15:01:17.806Z,26.28
2023-05-19T15:04:02.975Z,27.08
2023-05-19T15:06:52.309Z,28.74
2023-05-19T15:09:43.409Z,29.21
2023-05-19T15:12:27.861Z,29.14
2023-05-19T15:15:13.666Z,29.10
2023-05-19T15:17:58.581Z,29.12
2023-05-19T15:20:45.773Z,29.69
2023-05-19T15:23:30.685Z,30.10
2023-05-19T15:26:16.054Z,31.15
2023-05-19T15:29:01.367Z,32.51
2023-05-19T15:31:50.555Z,33.22
2023-05-19T15:34:35.475Z,33.40
2023-05-19T15:37:20.569Z,32.51
2023-05-19T15:40:06.531Z,31.95
2023-05-19T15:42:51.907Z,31.03
2023-05-19T15:45:36.750Z,30.86
2023-05-19T15:48:21.508Z,30.97
2023-05-19T15:51:06.931Z,31.15
2023-05-19T15:53:52.030Z,30.56
2023-05-19T15:56:37.319Z,29.97
2023-05-19T15:59:21.945Z,29.13
2023-05-19T16:02:07.823Z,28.61
2023-05-19T16:04:52.743Z,27.85
2023-05-19T16:07:37.863Z,27.26
2023-05-19T16:10:23.090Z,26.71
2023-05-19T16:13:08.108Z,26.36
2023-05-19T16:15:52.914Z,26.11
2023-05-19T16:18:38.127Z,26.00
2023-05-19T16:21:23.670Z,26.05
2023-05-19T16:24:09.148Z,26.08
2023-05-19T16:26:54.150Z,25.89
2023-05-19T16:29:39.172Z,25.44
2023-05-19T16:32:24.109Z,24.88
2023-05-19T16:35:09.573Z,24.28
2023-05-19T16:37:54.775Z,24.11
2023-05-19T16:40:39.681Z,23.82
2023-05-19T16:43:25.621Z,23.57
2023-05-19T16:46:11.465Z,23.46
2023-05-19T16:48:56.326Z,23.43
2023-05-19T16:51:41.599Z,23.33
2023-05-19T16:54:27.981Z,23.23
2023-05-19T16:57:14.109Z,23.06
2023-05-19T16:59:59.723Z,22.90
2023-05-19T17:02:44.406Z,22.72
2023-05-19T17:05:29.502Z,22.60
2023-05-19T17:08:14.414Z,22.46
2023-05-19T17:10:59.456Z,22.30
2023-05-19T17:13:45.695Z,22.15
2023-05-19T17:16:30.585Z,21.90
2023-05-19T17:19:15.877Z,21.65
2023-05-19T17:22:00.874Z,21.42
2023-05-19T17:24:46.888Z,21.22
2023-05-19T17:27:31.977Z,20.98
2023-05-19T17:30:16.960Z,20.72
2023-05-19T17:33:03.429Z,20.52
2023-05-19T17:35:48.679Z,20.30
2023-05-19T17:38:33.903Z,20.06
2023-05-19T17:41:18.826Z,19.86
2023-05-19T17:44:03.678Z,19.63
2023-05-19T17:46:48.668Z,19.40
2023-05-19T17:49:33.497Z,19.20
2023-05-19T17:52:19.890Z,19.02
2023-05-19T17:55:05.755Z,18.81
2023-05-19T17:57:50.554Z,18.62
2023-05-19T18:00:36.135Z,18.43
2023-05-19T18:03:22.235Z,18.27
2023-05-19T18:06:08.279Z,18.10
2023-05-19T18:08:57.359Z,17.94
2023-05-19T18:11:42.576Z,17.81
2023-05-19T18:14:27.694Z,17.68
2023-05-19T18:17:12.638Z,17.55
2023-05-19T18:19:57.435Z,17.43
2023-05-19T18:22:42.712Z,17.34
2023-05-19T18:25:28.219Z,17.24
2023-05-19T18:28:13.282Z,17.13
2023-05-19T18:31:03.220Z,17.07
2023-05-19T18:33:48.825Z,16.99
2023-05-19T18:36:34.994Z,16.93
2023-05-19T18:39:20.825Z,16.87
2023-05-19T18:42:05.871Z,16.82
2023-05-19T18:44:50.697Z,16.78
2023-05-19T18:47:35.283Z,16.74
2023-05-19T18:50:20.366Z,16.69
2023-05-19T18:53:05.737Z,16.63
2023-05-19T18:55:50.862Z,16.58
2023-05-19T18:58:36.168Z,16.51
2023-05-19T19:01:20.838Z,16.43
2023-05-19T19:04:06.141Z,16.34
2023-05-19T19:06:51.756Z,16.23
2023-05-19T19:09:37.018Z,16.16
2023-05-19T19:12:21.596Z,16.08
2023-05-19T19:15:07.087Z,16.01
2023-05-19T19:17:51.733Z,15.93
2023-05-19T19:20:36.964Z,15.86
2023-05-19T19:23:21.919Z,15.79
2023-05-19T19:26:08.872Z,15.72
2023-05-19T19:28:53.487Z,15.66
2023-05-19T19:31:38.974Z,15.58
2023-05-19T19:34:23.895Z,15.52
2023-05-19T19:37:09.073Z,15.45
2023-05-19T19:39:53.953Z,15.41
2023-05-19T19:42:39.725Z,15.33
2023-05-19T19:45:24.365Z,15.26
2023-05-19T19:48:09.755Z,15.20
2023-05-19T19:50:55.357Z,15.14
2023-05-19T19:53:40.081Z,15.07
2023-05-19T19:56:26.764Z,15.00
2023-05-19T19:59:12.363Z,14.96
2023-05-19T20:01:57.331Z,14.91
2023-05-19T20:04:42.146Z,14.87
2023-05-19T20:07:28.381Z,14.83
2023-05-19T20:10:13.569Z,14.80
2023-05-19T20:12:59.294Z,14.77
2023-05-19T20:15:45.089Z,14.74
2023-05-19T20:18:29.954Z,14.70
2023-05-19T20:21:14.838Z,14.63
2023-05-19T20:23:59.909Z,14.62
2023-05-19T20:26:45.005Z,14.57
2023-05-19T20:29:30.298Z,14.55
2023-05-19T20:32:14.952Z,14.49
2023-05-19T20:35:00.243Z,14.49
2023-05-19T20:37:45.263Z,14.46
2023-05-19T20:40:30.379Z,14.42
2023-05-19T20:43:15.128Z,14.41
2023-05-19T20:46:00.910Z,14.41
2023-05-19T20:48:45.701Z,14.39
2023-05-19T20:51:30.552Z,14.35
2023-05-19T20:54:16.472Z,14.29
2023-05-19T20:57:05.705Z,14.25
2023-05-19T20:59:50.678Z,14.20
2023-05-19T21:02:35.770Z,14.16
2023-05-19T21:05:20.618Z,14.16
2023-05-19T21:08:10.174Z,14.15
2023-05-19T21:10:55.110Z,14.10
2023-05-19T21:13:40.004Z,14.09
2023-05-19T21:16:25.437Z,14.10
2023-05-19T21:19:10.298Z,14.11
2023-05-19T21:21:56.327Z,14.14
2023-05-19T21:24:41.230Z,14.16
2023-05-19T21:27:26.450Z,14.19
2023-05-19T21:30:13.069Z,14.20
2023-05-19T21:32:58.088Z,14.20
2023-05-19T21:35:44.204Z,14.20
2023-05-19T21:38:29.042Z,14.18
2023-05-19T21:41:14.373Z,14.19
2023-05-19T21:43:58.969Z,14.17
2023-05-19T21:46:43.870Z,14.14
2023-05-19T21:49:29.211Z,14.15
2023-05-19T21:52:13.862Z,14.12
2023-05-19T21:54:58.710Z,14.10
2023-05-19T21:57:43.655Z,14.01
2023-05-19T22:00:28.810Z,13.93
2023-05-19T22:03:14.201Z,13.87
2023-05-19T22:05:59.340Z,13.80
2023-05-19T22:08:44.396Z,13.77
2023-05-19T22:11:29.596Z,13.74
2023-05-19T22:14:14.927Z,13.72
2023-05-19T22:16:59.410Z,13.70
2023-05-19T22:19:45.393Z,13.68
2023-05-19T22:22:29.878Z,13.66
2023-05-19T22:25:14.524Z,13.63
2023-05-19T22:28:00.670Z,13.61
2023-05-19T22:30:45.622Z,13.57
2023-05-19T22:33:30.720Z,13.57
2023-05-19T22:36:16.221Z,13.54
2023-05-19T22:39:01.135Z,13.51
2023-05-19T22:41:46.177Z,13.49
2023-05-19T22:44:30.783Z,13.48
2023-05-19T22:47:15.921Z,13.47
2023-05-19T22:50:00.787Z,13.49
2023-05-19T22:52:45.855Z,13.49
2023-05-19T22:55:30.782Z,13.53
2023-05-19T22:58:15.876Z,13.57
2023-05-19T23:01:00.691Z,13.62
2023-05-19T23:03:45.752Z,13.68
2023-05-19T23:06:30.835Z,13.75
2023-05-19T23:09:17.232Z,13.81
2023-05-19T23:12:01.915Z,13.89
2023-05-19T23:14:47.180Z,13.96
2023-05-19T23:17:31.930Z,14.06
2023-05-19T23:20:16.885Z,14.14
2023-05-19T23:23:01.936Z,14.21
2023-05-19T23:25:46.708Z,14.26
2023-05-19T23:28:31.260Z,14.30
2023-05-19T23:31:16.261Z,14.34
2023-05-19T23:34:01.310Z,14.34
2023-05-19T23:36:46.647Z,14.36
2023-05-19T23:39:31.284Z,14.36
2023-05-19T23:42:16.236Z,14.39
2023-05-19T23:45:00.651Z,14.38
2023-05-19T23:47:45.980Z,14.39
2023-05-19T23:50:30.999Z,14.36
2023-05-19T23:53:16.587Z,14.39
2023-05-19T23:56:01.290Z,14.40
2023-05-19T23:58:46.277Z,14.39
